Time;durP1;ratioP1;P1;durP2;ratioP2;P2;SDS_P1;SDS_P2;PMS_P1;PMS_P2;Temp;Humidity;BMP_temperature;BMP_pressure;BME280_temperature;BME280_humidity;BME280_pressure;Samples;Min_cycle;Max_cycle;Signal;HPM_P1;HPM_P2
2021/07/13 00:00:41;;;;;;;4.43;2.50;;;17.90;72.50;;;;;;5080798;28;20083;-51
2021/07/13 00:03:09;;;;;;;3.08;2.05;;;18.10;71.70;;;;;;5086914;28;20040;-56
2021/07/13 00:05:38;;;;;;;3.45;2.40;;;18.20;70.90;;;;;;5087333;28;20121;-51
2021/07/13 00:08:06;;;;;;;2.92;2.10;;;18.40;70.30;;;;;;5086988;28;20028;-53
2021/07/13 00:10:40;;;;;;;3.38;2.08;;;18.40;70.20;;;;;;5082263;28;20032;-54
2021/07/13 00:13:08;;;;;;;7.88;2.95;;;18.50;70.00;;;;;;5086966;28;20040;-52
2021/07/13 00:15:38;;;;;;;3.55;2.20;;;18.60;69.30;;;;;;5086955;28;20109;-46
2021/07/13 00:18:06;;;;;;;2.92;1.77;;;18.60;69.50;;;;;;5086919;28;20421;-53
2021/07/13 00:20:34;;;;;;;6.25;2.15;;;18.70;69.30;;;;;;5081193;28;20026;-55
2021/07/13 00:23:03;;;;;;;8.07;2.67;;;18.80;69.10;;;;;;5087448;28;20020;-49
2021/07/13 00:25:31;;;;;;;3.60;1.98;;;19.10;68.40;;;;;;5085503;28;20078;-51
2021/07/13 00:27:59;;;;;;;2.92;1.98;;;19.20;67.70;;;;;;5086555;28;20136;-48
2021/07/13 00:30:27;;;;;;;3.17;2.10;;;19.40;67.50;;;;;;5081115;28;20117;-52
2021/07/13 00:32:54;;;;;;;3.47;1.83;;;19.40;67.10;;;;;;5087093;28;20485;-51
2021/07/13 00:35:22;;;;;;;4.07;1.88;;;19.50;66.40;;;;;;5086805;28;20093;-49
2021/07/13 00:37:50;;;;;;;2.85;1.98;;;19.50;66.90;;;;;;5086447;28;20487;-51
2021/07/13 00:40:19;;;;;;;6.65;2.38;;;19.60;66.60;;;;;;5080701;28;20074;-52
2021/07/13 00:42:48;;;;;;;4.88;1.80;;;19.50;66.30;;;;;;5086851;28;20491;-54
2021/07/13 00:45:16;;;;;;;11.32;2.47;;;19.70;65.90;;;;;;5087911;28;20025;-51
2021/07/13 00:47:49;;;;;;;3.35;1.90;;;19.80;66.10;;;;;;5086219;28;20047;-57
2021/07/13 00:50:18;;;;;;;3.50;1.77;;;19.90;65.80;;;;;;5081247;28;20028;-52
2021/07/13 00:52:46;;;;;;;2.35;1.73;;;20.10;65.20;;;;;;5086803;28;20180;-49
2021/07/13 00:55:15;;;;;;;3.33;1.90;;;20.10;65.20;;;;;;5085854;28;20093;-52
2021/07/13 00:57:43;;;;;;;3.13;1.73;;;20.00;65.60;;;;;;5086214;28;20115;-57
2021/07/13 01:00:13;;;;;;;3.92;2.10;;;20.10;65.80;;;;;;5080954;28;20839;-57
2021/07/13 01:02:43;;;;;;;5.03;1.73;;;20.20;65.60;;;;;;5084984;28;20032;-56
2021/07/13 01:05:15;;;;;;;4.03;1.92;;;20.20;65.20;;;;;;5086960;28;20500;-53
2021/07/13 01:08:28;;;;;;;2.47;1.60;;;20.20;65.00;;;;;;5086625;28;20539;-57
2021/07/13 01:11:20;;;;;;;4.20;1.77;;;20.10;64.70;;;;;;5079092;28;20027;-55
2021/07/13 01:14:17;;;;;;;5.20;1.70;;;20.20;65.20;;;;;;5084746;28;20134;-53
2021/07/13 01:16:51;;;;;;;2.03;1.40;;;20.30;65.00;;;;;;5083243;28;20047;-56
2021/07/13 01:19:56;;;;;;;2.65;1.70;;;20.20;65.70;;;;;;5085014;28;20032;-54
2021/07/13 01:22:38;;;;;;;1.80;1.48;;;20.30;65.50;;;;;;5089131;28;20028;-56
2021/07/13 01:25:38;;;;;;;3.38;1.55;;;20.30;65.30;;;;;;5090687;28;20475;-54
2021/07/13 01:28:06;;;;;;;2.33;1.45;;;20.40;64.40;;;;;;5086089;28;20047;-55
2021/07/13 01:30:43;;;;;;;2.00;1.65;;;20.40;63.80;;;;;;5084620;28;20107;-47
2021/07/13 01:33:22;;;;;;;2.85;1.48;;;20.20;65.20;;;;;;5090725;28;20113;-53
2021/07/13 01:36:16;;;;;;;3.30;1.65;;;20.20;64.70;;;;;;5087008;28;20501;-57
2021/07/13 01:38:45;;;;;;;2.25;1.50;;;19.90;66.70;;;;;;5088082;28;20032;-53
2021/07/13 01:41:19;;;;;;;2.47;1.40;;;20.00;66.30;;;;;;5086182;28;20445;-53
2021/07/13 01:43:47;;;;;;;2.83;1.30;;;20.00;66.80;;;;;;5088518;28;20025;-50
2021/07/13 01:46:15;;;;;;;3.72;1.35;;;19.90;64.20;;;;;;5089819;28;20615;-53
2021/07/13 01:48:45;;;;;;;1.85;1.40;;;20.00;67.30;;;;;;5086495;28;20032;-52
2021/07/13 01:51:14;;;;;;;4.05;1.70;;;20.20;66.70;;;;;;5086039;28;20024;-54
2021/07/13 01:53:43;;;;;;;5.55;1.10;;;20.30;66.00;;;;;;5089411;28;20062;-51
2021/07/13 01:56:11;;;;;;;5.43;1.40;;;20.50;64.60;;;;;;5088357;28;20035;-50
2021/07/13 01:58:41;;;;;;;2.95;0.90;;;20.50;65.40;;;;;;5088391;28;20111;-54
2021/07/13 02:01:18;;;;;;;2.73;1.30;;;20.60;63.60;;;;;;5085763;28;20038;-49
2021/07/13 02:03:48;;;;;;;2.33;1.23;;;20.90;63.90;;;;;;5089353;28;20482;-55
2021/07/13 02:06:18;;;;;;;5.20;1.58;;;20.60;63.50;;;;;;5089497;28;20024;-54
2021/07/13 02:08:47;;;;;;;4.00;1.10;;;20.80;63.40;;;;;;5087384;28;20039;-53
2021/07/13 02:11:15;;;;;;;5.22;1.33;;;20.80;64.50;;;;;;5086063;28;20085;-50
2021/07/13 02:13:42;;;;;;;4.97;1.17;;;20.80;64.30;;;;;;5088902;28;20047;-45
2021/07/13 02:16:09;;;;;;;60.80;5.38;;;20.90;65.10;;;;;;5089027;28;20028;-47
2021/07/13 02:18:37;;;;;;;1.00;0.80;;;21.10;62.40;;;;;;5088182;28;20043;-52
2021/07/13 02:21:06;;;;;;;2.30;1.02;;;21.30;62.40;;;;;;5083449;28;20331;-53
2021/07/13 02:23:33;;;;;;;1.20;0.95;;;21.30;61.60;;;;;;5089133;28;20024;-58
2021/07/13 02:26:04;;;;;;;2.13;1.25;;;21.40;61.80;;;;;;5088965;28;20036;-56
2021/07/13 02:28:46;;;;;;;4.30;1.42;;;21.20;63.40;;;;;;5087650;28;20070;-54
2021/07/13 02:31:19;;;;;;;3.58;1.10;;;21.10;63.50;;;;;;5085560;28;20028;-56
2021/07/13 02:33:57;;;;;;;2.08;1.25;;;21.10;63.70;;;;;;5089000;28;20032;-50
2021/07/13 02:36:30;;;;;;;1.38;0.98;;;21.10;63.90;;;;;;5089454;28;20574;-57
2021/07/13 02:39:00;;;;;;;1.30;0.90;;;21.20;64.20;;;;;;5085823;28;20111;-53
2021/07/13 02:41:28;;;;;;;4.70;1.52;;;21.20;64.00;;;;;;5087091;28;20130;-53
2021/07/13 02:43:57;;;;;;;1.70;0.80;;;21.30;60.30;;;;;;5088903;28;20028;-57
2021/07/13 02:46:28;;;;;;;2.28;1.00;;;21.30;62.10;;;;;;5090615;28;20070;-52
2021/07/13 02:48:59;;;;;;;1.42;0.95;;;21.40;64.10;;;;;;5086372;28;20039;-54
2021/07/13 02:51:28;;;;;;;2.05;0.98;;;21.40;63.70;;;;;;5086848;28;20054;-52
2021/07/13 02:53:58;;;;;;;7.38;1.20;;;21.50;62.60;;;;;;5088490;28;20028;-54
2021/07/13 02:56:28;;;;;;;4.70;1.17;;;21.70;62.70;;;;;;5088611;28;20027;-56
2021/07/13 02:59:01;;;;;;;2.80;0.82;;;21.40;62.40;;;;;;5086042;28;20556;-56
2021/07/13 03:01:31;;;;;;;2.22;1.10;;;21.50;63.20;;;;;;5086644;28;20064;-53
2021/07/13 03:03:59;;;;;;;2.03;0.98;;;21.70;59.70;;;;;;5088079;28;20032;-57
2021/07/13 03:06:27;;;;;;;2.60;1.05;;;21.80;62.30;;;;;;5088519;28;20079;-53
2021/07/13 03:08:55;;;;;;;2.45;0.77;;;21.50;62.60;;;;;;5085840;28;20036;-55
2021/07/13 03:11:23;;;;;;;1.67;0.75;;;21.70;62.80;;;;;;5085270;28;20078;-52
2021/07/13 03:13:51;;;;;;;4.05;0.90;;;21.70;63.00;;;;;;5087750;28;20035;-55
2021/07/13 03:16:18;;;;;;;1.52;0.80;;;21.80;61.80;;;;;;5085351;28;20119;-52
2021/07/13 03:18:46;;;;;;;2.85;1.05;;;22.00;61.70;;;;;;5085855;28;20501;-51
2021/07/13 03:21:17;;;;;;;3.63;0.90;;;22.00;61.30;;;;;;5085034;28;20150;-56
2021/07/13 03:23:46;;;;;;;6.60;1.35;;;22.00;61.40;;;;;;5087648;28;20130;-55
2021/07/13 03:26:13;;;;;;;1.58;0.82;;;21.90;62.00;;;;;;5088360;28;20031;-51
2021/07/13 03:28:42;;;;;;;2.28;0.77;;;21.70;62.30;;;;;;5085389;28;20510;-54
2021/07/13 03:31:10;;;;;;;3.78;0.93;;;21.60;60.40;;;;;;5082697;28;20043;-50
2021/07/13 03:33:37;;;;;;;3.65;1.52;;;21.60;61.90;;;;;;5087083;28;20060;-49
2021/07/13 03:36:08;;;;;;;2.70;1.00;;;21.50;60.80;;;;;;5088088;28;20066;-50
2021/07/13 03:38:35;;;;;;;4.70;1.13;;;21.40;62.70;;;;;;5087589;28;20036;-48
2021/07/13 03:41:03;;;;;;;2.28;0.90;;;21.30;62.60;;;;;;5083126;28;20052;-51
2021/07/13 03:43:30;;;;;;;1.65;0.77;;;21.20;61.60;;;;;;5087152;28;20047;-51
2021/07/13 03:45:59;;;;;;;1.20;0.70;;;21.10;63.70;;;;;;5088025;28;20043;-55
2021/07/13 03:48:27;;;;;;;3.20;1.00;;;21.00;64.30;;;;;;5087496;28;20371;-60
2021/07/13 03:50:55;;;;;;;3.50;1.00;;;20.80;63.80;;;;;;5082372;28;20386;-55
2021/07/13 03:53:22;;;;;;;1.33;0.98;;;20.70;65.20;;;;;;5087512;28;20119;-55
2021/07/13 03:55:49;;;;;;;1.73;0.85;;;20.60;63.00;;;;;;5084516;28;20028;-49
2021/07/13 03:58:17;;;;;;;7.00;1.40;;;20.60;64.70;;;;;;5087705;28;20036;-49
2021/07/13 04:00:44;;;;;;;7.15;1.20;;;20.60;65.70;;;;;;5081531;28;20115;-53
2021/07/13 04:03:11;;;;;;;1.65;0.82;;;20.60;65.20;;;;;;5087281;28;20050;-54
2021/07/13 04:05:39;;;;;;;5.55;0.82;;;20.50;64.00;;;;;;5084932;28;20028;-51
2021/07/13 04:08:07;;;;;;;1.70;0.70;;;20.50;63.40;;;;;;5087466;28;20031;-53
2021/07/13 04:10:34;;;;;;;1.13;0.60;;;20.40;66.20;;;;;;5082636;28;20038;-53
2021/07/13 04:13:02;;;;;;;1.80;0.75;;;20.30;64.70;;;;;;5086817;28;20164;-51
2021/07/13 04:15:33;;;;;;;2.20;0.60;;;20.40;67.60;;;;;;5085645;28;20104;-55
2021/07/13 04:18:00;;;;;;;1.58;0.88;;;20.20;68.30;;;;;;5087397;28;20024;-53
2021/07/13 04:20:28;;;;;;;1.88;0.77;;;20.30;67.70;;;;;;5082497;28;20283;-57
2021/07/13 04:22:55;;;;;;;1.45;0.80;;;20.30;68.40;;;;;;5086525;28;20028;-56
2021/07/13 04:25:22;;;;;;;1.45;0.85;;;20.50;66.90;;;;;;5087329;28;20107;-57
2021/07/13 04:27:50;;;;;;;0.82;0.50;;;20.50;66.10;;;;;;5086802;28;20754;-50
2021/07/13 04:30:17;;;;;;;1.20;0.82;;;20.40;67.30;;;;;;5082337;28;20020;-50
2021/07/13 04:32:45;;;;;;;1.17;0.65;;;20.50;67.60;;;;;;5086475;28;20039;-50
2021/07/13 04:35:12;;;;;;;1.25;0.77;;;20.60;67.00;;;;;;5086782;28;20051;-52
2021/07/13 04:37:40;;;;;;;2.53;0.77;;;20.60;65.60;;;;;;5086957;28;20028;-49
2021/07/13 04:40:07;;;;;;;2.08;0.75;;;20.70;66.50;;;;;;5081501;28;20475;-57
2021/07/13 04:42:35;;;;;;;7.10;0.90;;;20.80;66.70;;;;;;5086264;28;20360;-57
2021/07/13 04:45:03;;;;;;;0.88;0.60;;;20.80;64.60;;;;;;5088290;28;20031;-53
2021/07/13 04:47:30;;;;;;;1.20;0.88;;;20.90;65.00;;;;;;5086905;28;20032;-55
2021/07/13 04:49:58;;;;;;;2.22;0.55;;;20.70;65.10;;;;;;5085755;28;20519;-55
2021/07/13 04:52:25;;;;;;;4.22;1.25;;;20.60;66.20;;;;;;5090581;28;20062;-58
2021/07/13 04:54:52;;;;;;;1.73;0.80;;;20.50;65.10;;;;;;5091010;28;20046;-53
2021/07/13 04:57:20;;;;;;;2.00;1.10;;;20.40;66.10;;;;;;5090632;28;20035;-56
2021/07/13 04:59:47;;;;;;;2.95;1.05;;;20.30;66.80;;;;;;5085498;28;20020;-57
2021/07/13 05:02:15;;;;;;;0.88;0.60;;;20.30;67.40;;;;;;5090258;28;20035;-56
2021/07/13 05:04:42;;;;;;;2.22;0.80;;;20.20;67.30;;;;;;5091045;28;20081;-57
2021/07/13 05:07:09;;;;;;;5.38;0.95;;;20.20;67.40;;;;;;5090412;28;20141;-57
2021/07/13 05:09:37;;;;;;;1.98;0.85;;;20.20;67.70;;;;;;5085591;28;20118;-57
2021/07/13 05:12:05;;;;;;;2.17;0.80;;;20.30;63.60;;;;;;5088528;28;20070;-56
2021/07/13 05:14:32;;;;;;;4.47;1.42;;;20.30;67.70;;;;;;5090683;28;20024;-57
2021/07/13 05:16:59;;;;;;;0.95;0.50;;;20.30;63.60;;;;;;5090411;28;20115;-57
2021/07/13 05:19:27;;;;;;;2.38;0.80;;;20.30;66.10;;;;;;5085591;28;20088;-55
2021/07/13 05:21:56;;;;;;;2.08;0.50;;;20.30;65.80;;;;;;5089903;28;20059;-56
2021/07/13 05:24:25;;;;;;;4.63;0.57;;;20.20;67.50;;;;;;5091151;28;20039;-57
2021/07/13 05:26:53;;;;;;;1.92;0.60;;;20.10;67.10;;;;;;5090441;28;20110;-52
2021/07/13 05:29:21;;;;;;;0.98;0.65;;;19.90;67.20;;;;;;5087803;28;20051;-54
2021/07/13 05:31:48;;;;;;;2.83;1.13;;;19.70;68.30;;;;;;5091911;28;20036;-55
2021/07/13 05:34:15;;;;;;;1.55;0.50;;;19.60;67.00;;;;;;5091811;28;20054;-57
2021/07/13 05:36:43;;;;;;;2.25;0.70;;;19.40;69.90;;;;;;5091966;28;20149;-55
2021/07/13 05:39:11;;;;;;;1.02;0.55;;;19.30;70.40;;;;;;5091725;28;20064;-57
2021/07/13 05:41:39;;;;;;;4.75;1.10;;;19.20;70.90;;;;;;5090919;28;20040;-58
2021/07/13 05:44:06;;;;;;;1.40;0.68;;;19.10;69.00;;;;;;5090319;28;20047;-54
2021/07/13 05:46:35;;;;;;;1.13;0.60;;;19.10;70.00;;;;;;5091588;28;20089;-58
2021/07/13 05:49:03;;;;;;;0.85;0.40;;;19.00;71.90;;;;;;5091541;28;20032;-53
2021/07/13 05:51:40;;;;;;;2.05;0.60;;;18.90;71.30;;;;;;5091281;28;20020;-59
2021/07/13 05:54:08;;;;;;;0.85;0.65;;;18.80;71.90;;;;;;5091264;28;20020;-57
2021/07/13 05:56:35;;;;;;;1.45;0.73;;;18.70;72.80;;;;;;5091643;28;20051;-57
2021/07/13 05:59:04;;;;;;;2.50;1.15;;;18.60;73.10;;;;;;5090687;28;20276;-55
2021/07/13 06:01:32;;;;;;;1.48;0.80;;;18.50;73.10;;;;;;5091354;28;20024;-56
2021/07/13 06:04:02;;;;;;;1.75;0.88;;;18.40;73.70;;;;;;5091063;28;20036;-56
2021/07/13 06:06:30;;;;;;;1.73;0.90;;;18.30;73.30;;;;;;5091495;28;20126;-56
2021/07/13 06:08:57;;;;;;;1.08;0.60;;;18.20;73.80;;;;;;5091217;28;20195;-56
2021/07/13 06:11:24;;;;;;;0.80;0.60;;;18.20;75.30;;;;;;5090662;28;20032;-58
2021/07/13 06:13:56;;;;;;;0.85;0.63;;;18.10;74.20;;;;;;5085666;28;20042;-52
2021/07/13 06:16:23;;;;;;;1.38;0.68;;;18.00;74.20;;;;;;5091255;28;20032;-53
2021/07/13 06:18:51;;;;;;;2.63;1.13;;;17.90;76.10;;;;;;5090879;28;20031;-49
2021/07/13 06:21:19;;;;;;;1.40;0.70;;;17.80;77.20;;;;;;5090942;28;20032;-55
2021/07/13 06:23:47;;;;;;;1.40;0.85;;;17.80;77.50;;;;;;5090900;28;20451;-53
2021/07/13 06:26:15;;;;;;;2.13;0.75;;;17.70;77.90;;;;;;5091074;28;20070;-53
2021/07/13 06:28:42;;;;;;;3.33;0.43;;;17.70;78.00;;;;;;5090474;28;20063;-53
2021/07/13 06:31:10;;;;;;;1.15;0.55;;;17.60;78.60;;;;;;5090281;28;20024;-55
2021/07/13 06:33:39;;;;;;;2.42;0.70;;;17.60;78.70;;;;;;5090958;28;20036;-53
2021/07/13 06:36:08;;;;;;;4.70;0.88;;;17.50;79.40;;;;;;5089505;28;20024;-54
2021/07/13 06:38:35;;;;;;;1.60;0.82;;;17.40;78.30;;;;;;5091188;28;20076;-53
2021/07/13 06:41:03;;;;;;;1.88;1.05;;;17.50;78.00;;;;;;5090594;28;20144;-54
2021/07/13 06:43:31;;;;;;;2.78;0.65;;;17.40;78.00;;;;;;5090346;28;20028;-51
2021/07/13 06:45:58;;;;;;;4.20;0.70;;;17.40;79.40;;;;;;5090173;28;20561;-52
2021/07/13 06:48:26;;;;;;;1.17;0.70;;;17.30;79.70;;;;;;5090541;28;20178;-56
2021/07/13 06:50:54;;;;;;;9.70;2.00;;;17.20;79.80;;;;;;5090476;28;20479;-53
2021/07/13 06:53:22;;;;;;;8.13;1.98;;;17.20;79.30;;;;;;5090185;28;20536;-56
2021/07/13 06:55:50;;;;;;;11.68;1.50;;;17.20;79.90;;;;;;5088913;28;20024;-53
2021/07/13 06:58:18;;;;;;;2.90;1.00;;;17.20;77.80;;;;;;5089860;28;20062;-53
2021/07/13 07:00:45;;;;;;;6.57;1.35;;;17.20;79.60;;;;;;5090131;28;20028;-53
2021/07/13 07:03:13;;;;;;;1.80;0.75;;;17.10;79.60;;;;;;5090436;28;20261;-51
2021/07/13 07:05:40;;;;;;;1.13;0.63;;;17.10;81.00;;;;;;5090281;28;20023;-54
2021/07/13 07:08:08;;;;;;;1.83;0.95;;;17.00;81.50;;;;;;5090145;28;20031;-55
2021/07/13 07:10:36;;;;;;;1.33;0.77;;;17.00;81.80;;;;;;5089825;28;20072;-53
2021/07/13 07:13:03;;;;;;;1.20;0.90;;;16.90;82.00;;;;;;5089431;28;20448;-52
2021/07/13 07:15:31;;;;;;;7.63;1.02;;;16.90;81.80;;;;;;5088311;28;20049;-53
2021/07/13 07:17:58;;;;;;;1.88;1.08;;;16.90;81.80;;;;;;5089037;28;20081;-55
2021/07/13 07:20:28;;;;;;;8.80;1.52;;;16.90;81.60;;;;;;5089312;28;20064;-52
2021/07/13 07:23:00;;;;;;;4.10;1.40;;;16.80;81.10;;;;;;5089292;28;20024;-56
2021/07/13 07:25:30;;;;;;;8.60;2.10;;;16.80;81.80;;;;;;5089381;28;20114;-53
2021/07/13 07:27:59;;;;;;;4.25;1.10;;;16.80;81.60;;;;;;5086762;28;20051;-53
2021/07/13 07:30:30;;;;;;;11.23;1.80;;;16.80;82.40;;;;;;5089275;28;20115;-53
2021/07/13 07:32:59;;;;;;;12.25;1.58;;;16.70;81.80;;;;;;5089299;28;20039;-55
2021/07/13 07:35:28;;;;;;;2.72;1.30;;;16.70;81.90;;;;;;5090112;28;20035;-52
2021/07/13 07:37:56;;;;;;;1.67;0.90;;;16.70;82.20;;;;;;5087992;28;20028;-54
2021/07/13 07:40:24;;;;;;;5.78;2.35;;;16.70;83.20;;;;;;5081949;28;20056;-54
2021/07/13 07:42:53;;;;;;;8.80;2.30;;;16.60;82.30;;;;;;5088421;28;20024;-54
2021/07/13 07:45:22;;;;;;;7.90;2.00;;;16.60;82.20;;;;;;5088798;28;20024;-51
2021/07/13 07:47:50;;;;;;;5.85;1.80;;;16.60;82.10;;;;;;5088365;28;20062;-53
2021/07/13 07:50:20;;;;;;;12.15;2.03;;;16.60;81.90;;;;;;5088978;28;20024;-52
2021/07/13 07:52:47;;;;;;;7.80;2.40;;;16.60;81.60;;;;;;5087226;28;20051;-53
2021/07/13 07:55:16;;;;;;;4.57;1.10;;;16.50;82.20;;;;;;5089153;28;20031;-54
2021/07/13 07:57:44;;;;;;;5.05;1.70;;;16.50;83.20;;;;;;5088133;28;20105;-53
2021/07/13 08:00:13;;;;;;;5.70;1.90;;;16.50;82.60;;;;;;5088632;28;20032;-56
2021/07/13 08:02:41;;;;;;;3.70;1.95;;;16.50;82.50;;;;;;5088878;28;20039;-53
2021/07/13 08:05:10;;;;;;;4.25;1.52;;;16.40;83.70;;;;;;5089158;28;20024;-53
2021/07/13 08:07:38;;;;;;;6.18;1.45;;;16.40;83.50;;;;;;5088140;28;20085;-56
2021/07/13 08:10:07;;;;;;;3.60;1.60;;;16.40;82.90;;;;;;5088783;28;20055;-56
2021/07/13 08:12:35;;;;;;;4.32;1.58;;;16.40;83.20;;;;;;5087934;28;20126;-50
2021/07/13 08:15:05;;;;;;;11.27;2.05;;;16.40;82.90;;;;;;5088466;28;20049;-49
2021/07/13 08:17:32;;;;;;;9.18;1.25;;;16.30;83.00;;;;;;5088074;28;20027;-54
2021/07/13 08:20:00;;;;;;;1.42;1.00;;;16.30;83.90;;;;;;5088381;28;20055;-54
2021/07/13 08:22:30;;;;;;;3.67;1.58;;;16.30;84.30;;;;;;5089080;28;20035;-54
2021/07/13 08:24:59;;;;;;;3.95;1.73;;;16.30;84.10;;;;;;5088809;28;20028;-53
2021/07/13 08:27:28;;;;;;;2.85;1.30;;;16.30;84.30;;;;;;5088155;28;20039;-53
2021/07/13 08:29:55;;;;;;;6.38;2.47;;;16.20;84.10;;;;;;5084766;28;20138;-56
2021/07/13 08:32:24;;;;;;;3.17;1.92;;;16.20;83.60;;;;;;5088472;28;20040;-53
2021/07/13 08:34:54;;;;;;;9.35;2.05;;;16.20;84.40;;;;;;5088574;28;20020;-57
2021/07/13 08:37:22;;;;;;;7.80;2.63;;;16.20;84.40;;;;;;5070434;28;20111;-55
2021/07/13 08:39:49;;;;;;;4.15;2.85;;;16.20;84.70;;;;;;5067937;28;20119;-57
2021/07/13 08:42:17;;;;;;;7.32;3.50;;;16.20;84.40;;;;;;5088170;28;20028;-55
2021/07/13 08:44:45;;;;;;;6.97;3.35;;;16.20;84.70;;;;;;5088396;28;20446;-57
2021/07/13 08:47:16;;;;;;;10.35;4.00;;;16.20;84.30;;;;;;5088209;28;20085;-58
2021/07/13 08:49:45;;;;;;;5.18;2.55;;;16.10;84.50;;;;;;5086856;28;20421;-60
2021/07/13 08:52:13;;;;;;;7.05;2.85;;;16.10;84.70;;;;;;5088257;28;20031;-60
2021/07/13 08:54:41;;;;;;;9.48;2.83;;;16.10;84.90;;;;;;5087971;28;20497;-59
2021/07/13 08:57:11;;;;;;;11.60;2.78;;;16.10;84.90;;;;;;5088603;28;20040;-56
2021/07/13 08:59:39;;;;;;;5.30;2.70;;;16.10;85.10;;;;;;5079061;28;20032;-50
2021/07/13 09:02:07;;;;;;;10.15;5.22;;;16.00;85.00;;;;;;5083811;28;20043;-56
2021/07/13 09:04:37;;;;;;;9.25;6.22;;;16.10;85.10;;;;;;5084603;28;20031;-51
2021/07/13 09:07:09;;;;;;;15.70;8.25;;;16.10;85.30;;;;;;5084661;28;20032;-58
2021/07/13 09:09:39;;;;;;;21.50;9.70;;;16.10;85.10;;;;;;5081698;28;20028;-54
2021/07/13 09:12:23;;;;;;;29.30;15.00;;;16.10;84.70;;;;;;5082369;28;20048;-58
2021/07/13 09:14:59;;;;;;;44.22;20.38;;;16.10;85.10;;;;;;5086602;28;20074;-56
2021/07/13 09:17:32;;;;;;;55.78;26.88;;;16.10;84.90;;;;;;5084986;28;20047;-53
2021/07/13 09:20:27;;;;;;;61.58;30.95;;;16.10;85.00;;;;;;5079173;28;20047;-52
2021/07/13 09:22:56;;;;;;;66.60;34.55;;;16.10;85.00;;;;;;5083891;28;20046;-48
2021/07/13 09:25:30;;;;;;;81.78;39.67;;;16.10;84.90;;;;;;5086306;28;20059;-53
2021/07/13 09:28:07;;;;;;;69.30;36.10;;;16.10;85.50;;;;;;5083186;28;20052;-56
2021/07/13 09:30:36;;;;;;;65.80;34.83;;;16.10;84.90;;;;;;5077026;28;20107;-59
2021/07/13 09:33:19;;;;;;;66.93;33.33;;;16.10;85.40;;;;;;5086740;28;20127;-53
2021/07/13 09:36:12;;;;;;;66.30;33.83;;;16.10;85.40;;;;;;5089921;28;20031;-53
2021/07/13 09:38:40;;;;;;;66.95;32.97;;;16.00;85.00;;;;;;5086290;28;20028;-50
2021/07/13 09:41:14;;;;;;;64.70;32.90;;;16.00;84.60;;;;;;5084135;28;20024;-51
2021/07/13 09:43:47;;;;;;;72.55;36.38;;;16.00;84.90;;;;;;5090215;28;20081;-57
2021/07/13 09:46:34;;;;;;;75.68;34.72;;;16.00;84.50;;;;;;5090843;28;20103;-57
2021/07/13 09:49:22;;;;;;;71.38;35.22;;;16.00;85.20;;;;;;5083508;28;20112;-54
2021/07/13 09:51:57;;;;;;;68.75;34.40;;;16.00;85.20;;;;;;5087845;28;20125;-50
2021/07/13 09:54:38;;;;;;;76.00;36.92;;;16.00;84.90;;;;;;5090218;28;20059;-52
2021/07/13 09:57:24;;;;;;;69.53;35.85;;;16.00;85.00;;;;;;5084103;28;20044;-55
2021/07/13 09:59:55;;;;;;;70.57;35.42;;;16.00;84.90;;;;;;5080327;28;20063;-60
2021/07/13 10:02:26;;;;;;;67.32;34.88;;;16.00;85.00;;;;;;5088851;28;20043;-57
2021/07/13 10:04:56;;;;;;;62.67;34.85;;;15.90;84.90;;;;;;5090556;28;20027;-58
2021/07/13 10:07:27;;;;;;;67.30;33.42;;;15.90;85.00;;;;;;5090151;28;20062;-58
2021/07/13 10:09:57;;;;;;;64.25;34.40;;;15.90;85.10;;;;;;5086673;28;20410;-50
2021/07/13 10:12:26;;;;;;;69.88;36.58;;;15.90;84.90;;;;;;5087982;28;20032;-52
2021/07/13 10:14:57;;;;;;;64.75;35.05;;;15.90;85.10;;;;;;5089533;28;20517;-56
2021/07/13 10:17:30;;;;;;;58.13;32.22;;;15.90;84.70;;;;;;5089554;28;20028;-57
2021/07/13 10:20:09;;;;;;;66.18;33.80;;;15.90;84.70;;;;;;5084640;28;20359;-50
2021/07/13 10:22:41;;;;;;;59.47;33.92;;;15.80;84.80;;;;;;5088823;28;20077;-54
2021/07/13 10:25:10;;;;;;;65.05;33.30;;;15.80;84.70;;;;;;5084705;28;20039;-56
2021/07/13 10:27:48;;;;;;;56.45;32.35;;;15.80;84.70;;;;;;5087943;28;20044;-49
2021/07/13 10:30:18;;;;;;;62.58;34.42;;;15.80;84.90;;;;;;5080554;28;20494;-55
2021/07/13 10:32:45;;;;;;;58.13;31.83;;;15.80;84.90;;;;;;5088042;28;20071;-58
2021/07/13 10:35:23;;;;;;;64.65;33.55;;;15.80;84.70;;;;;;5088289;28;20782;-57
2021/07/13 10:38:20;;;;;;;51.25;29.80;;;15.80;84.70;;;;;;5085619;28;20028;-54
2021/07/13 10:40:52;;;;;;;57.72;32.47;;;15.70;84.80;;;;;;5080938;28;20031;-55
2021/07/13 10:43:20;;;;;;;57.90;31.10;;;15.70;84.80;;;;;;5087130;28;20115;-55
2021/07/13 10:46:04;;;;;;;49.72;30.13;;;15.70;84.50;;;;;;5086638;28;20553;-56
2021/07/13 10:48:31;;;;;;;59.60;31.33;;;15.70;85.10;;;;;;5087516;28;20032;-57
2021/07/13 10:51:06;;;;;;;60.17;32.63;;;15.60;85.00;;;;;;5082719;28;20559;-54
2021/07/13 10:53:35;;;;;;;55.72;31.35;;;15.60;85.40;;;;;;5087723;28;20145;-50
2021/07/13 10:56:18;;;;;;;54.08;30.08;;;15.60;85.60;;;;;;5086533;28;20028;-53
2021/07/13 10:58:50;;;;;;;53.38;28.00;;;15.60;85.40;;;;;;5084720;28;20032;-56
2021/07/13 11:01:34;;;;;;;49.05;27.67;;;15.60;85.10;;;;;;5083940;28;20566;-59
2021/07/13 11:04:06;;;;;;;51.28;28.25;;;15.60;85.40;;;;;;5087285;28;20134;-56
2021/07/13 11:06:40;;;;;;;;;;;15.60;85.30;;;;;;5088209;28;20024;-57
2021/07/13 11:09:30;;;;;;;52.60;28.65;;;15.60;85.30;;;;;;5084917;28;20017;-56
2021/07/13 11:12:06;;;;;;;47.22;27.90;;;15.60;85.30;;;;;;5085133;28;20047;-45
2021/07/13 11:14:34;;;;;;;44.20;25.50;;;15.60;85.20;;;;;;5086921;28;20031;-54
2021/07/13 11:17:01;;;;;;;49.03;27.88;;;15.60;85.00;;;;;;5087157;28;20134;-53
2021/07/13 11:19:32;;;;;;;49.67;28.08;;;15.50;85.00;;;;;;5082575;28;20036;-52
2021/07/13 11:22:00;;;;;;;47.13;26.98;;;15.50;85.20;;;;;;5084066;28;20374;-52
2021/07/13 11:24:27;;;;;;;48.08;25.75;;;15.50;85.30;;;;;;5087422;28;20024;-53
2021/07/13 11:26:57;;;;;;;49.10;26.20;;;15.50;85.20;;;;;;5084285;28;20046;-56
2021/07/13 11:29:27;;;;;;;47.30;25.73;;;15.50;85.80;;;;;;5080083;28;20056;-55
2021/07/13 11:31:57;;;;;;;44.75;25.27;;;15.50;85.40;;;;;;5085709;28;20040;-49
2021/07/13 11:34:30;;;;;;;48.97;24.48;;;15.50;85.50;;;;;;5086918;28;20024;-51
2021/07/13 11:36:58;;;;;;;46.30;26.73;;;15.50;85.40;;;;;;5086042;28;20020;-51
2021/07/13 11:39:29;;;;;;;37.80;22.17;;;15.50;85.50;;;;;;5083469;28;20031;-53
2021/07/13 11:42:03;;;;;;;46.00;24.15;;;15.40;84.70;;;;;;5088358;28;20028;-55
2021/07/13 11:44:30;;;;;;;44.47;24.33;;;15.40;85.60;;;;;;5089467;28;20036;-55
2021/07/13 11:46:58;;;;;;;40.90;23.63;;;15.40;86.20;;;;;;5087436;28;20028;-52
2021/07/13 11:49:28;;;;;;;44.45;24.30;;;15.40;85.80;;;;;;5087995;28;20031;-56
2021/07/13 11:52:01;;;;;;;40.22;23.73;;;15.40;85.80;;;;;;5089250;28;20111;-55
2021/07/13 11:54:35;;;;;;;42.75;23.92;;;15.30;85.80;;;;;;5089294;28;20434;-53
2021/07/13 11:57:06;;;;;;;42.97;23.08;;;15.30;86.00;;;;;;5088700;28;20096;-55
2021/07/13 11:59:34;;;;;;;39.08;21.75;;;15.30;85.90;;;;;;5089311;28;20051;-55
2021/07/13 12:02:08;;;;;;;36.67;20.90;;;15.30;86.10;;;;;;5088707;28;20486;-52
2021/07/13 12:04:39;;;;;;;42.55;23.98;;;15.30;86.20;;;;;;5089369;28;20055;-52
2021/07/13 12:07:06;;;;;;;35.97;21.85;;;15.30;86.30;;;;;;5089094;28;20027;-56
2021/07/13 12:09:39;;;;;;;37.05;20.25;;;15.30;86.30;;;;;;5088948;28;20177;-55
2021/07/13 12:12:09;;;;;;;;;;;15.30;86.30;;;;;;5089143;28;20387;-53
2021/07/13 12:14:39;;;;;;;37.05;19.35;;;15.30;86.30;;;;;;5088988;28;19956;-55
2021/07/13 12:17:07;;;;;;;32.72;19.85;;;15.20;86.30;;;;;;5088486;28;20133;-51
2021/07/13 12:19:35;;;;;;;34.67;18.95;;;15.20;86.40;;;;;;5088695;28;20039;-57
2021/07/13 12:22:08;;;;;;;36.40;21.42;;;15.20;86.70;;;;;;5088608;28;20051;-55
2021/07/13 12:24:43;;;;;;;36.58;19.55;;;15.20;86.80;;;;;;5089065;28;20626;-54
2021/07/13 12:27:13;;;;;;;31.33;18.92;;;15.20;86.90;;;;;;5088558;28;20089;-52
2021/07/13 12:29:42;;;;;;;26.88;18.23;;;15.20;86.90;;;;;;5088247;28;20410;-55
2021/07/13 12:32:21;;;;;;;32.92;18.33;;;15.10;86.90;;;;;;5088329;28;20036;-57
2021/07/13 12:34:53;;;;;;;33.00;17.77;;;15.20;87.00;;;;;;5088819;28;20024;-53
2021/07/13 12:37:28;;;;;;;29.40;17.70;;;15.10;86.90;;;;;;5088932;28;20051;-55
2021/07/13 12:40:02;;;;;;;33.90;17.98;;;15.10;87.10;;;;;;5088637;28;20077;-54
2021/07/13 12:42:32;;;;;;;30.65;18.25;;;15.10;87.10;;;;;;5088409;28;20024;-51
2021/07/13 12:45:00;;;;;;;29.80;17.08;;;15.10;87.20;;;;;;5088709;28;20032;-57
2021/07/13 12:47:33;;;;;;;29.33;16.88;;;15.10;87.20;;;;;;5088192;28;20475;-49
2021/07/13 12:50:15;;;;;;;30.17;17.40;;;15.10;87.20;;;;;;5088388;28;20157;-54
2021/07/13 12:53:04;;;;;;;25.83;16.85;;;15.10;87.20;;;;;;5088755;28;20051;-55
2021/07/13 12:55:48;;;;;;;31.33;17.73;;;15.10;87.40;;;;;;5088419;28;20543;-51
2021/07/13 12:58:17;;;;;;;29.65;16.50;;;15.00;87.40;;;;;;5088363;28;20055;-56